^^
Saratoga-Weather Station Historical Data
Daily Summary for September 26, 2022 Units:  English    Metric   Both
Daily Weekly Monthly Yearly Custom
  High: Low: Average:
Temperature: 59.5 °F 45.1 °F 50.9 °F
Dew Point: 49.1 °F 42.1 °F 46.2 °F
Humidity: 93% 62% 85%
Wind Speed: 10.1mph 0mph 2.3mph
Wind Gust: 18mph - -
Wind- - WSW
Pressure: 29.9 in 29.5 in -
Precipitation: 0.31 in    
Historical Graphs
 
 
Tabular Data for September 26, 2022
Time Temperature Dew Point Pressure Wind Wind Speed Wind Gust Humidity Rainfall Rate (Hourly) solar
00:04 47.7 °F 44.2 °F 29.9 in Calm   1 mph 88% 0 in 0 W/m2
00:09 47.7 °F 44.1 °F 29.9 in Calm   2 mph 87% 0 in 0 W/m2
00:14 48 °F 44.4 °F 29.9 in NW 0.9 mph 1 mph 87% 0 in 0 W/m2
00:19 48.4 °F 44.4 °F 29.9 in NW 0.9 mph 1 mph 86% 0 in 0 W/m2
00:24 48.4 °F 44.4 °F 29.9 in Calm   2 mph 86% 0 in 0 W/m2
00:29 48.2 °F 44.2 °F 29.9 in Calm   1 mph 86% 0 in 0 W/m2
00:34 48 °F 44.1 °F 29.9 in Calm   2 mph 86% 0 in 0 W/m2
00:39 47.8 °F 43.9 °F 29.9 in Calm     86% 0 in 0 W/m2
00:44 47.7 °F 43.7 °F 29.9 in Calm     86% 0 in 0 W/m2
00:49 47.3 °F 43.3 °F 29.9 in Calm     86% 0 in 0 W/m2
00:54 46.9 °F 43 °F 29.9 in Calm     86% 0 in 0 W/m2
00:59 46.8 °F 43.2 °F 29.9 in Calm     87% 0 in 0 W/m2
01:04 46.6 °F 43 °F 29.9 in Calm     87% 0 in 0 W/m2
01:09 46.2 °F 42.6 °F 29.9 in Calm     87% 0 in 0 W/m2
01:14 46 °F 42.6 °F 29.9 in Calm     88% 0 in 0 W/m2
01:19 45.9 °F 42.4 °F 29.9 in Calm     88% 0 in 0 W/m2
01:24 45.7 °F 42.6 °F 29.9 in Calm     89% 0 in 0 W/m2
01:29 45.5 °F 42.4 °F 29.9 in Calm     89% 0 in 0 W/m2
01:34 45.3 °F 42.3 °F 29.9 in Calm     89% 0 in 0 W/m2
01:39 45.1 °F 42.1 °F 29.9 in Calm     89% 0 in 0 W/m2
01:44 45.1 °F 42.1 °F 29.9 in Calm     89% 0 in 0 W/m2
01:49 45.1 °F 42.4 °F 29.9 in Calm   1 mph 90% 0 in 0 W/m2
01:54 45.1 °F 42.6 °F 29.9 in Calm   2 mph 91% 0 in 0 W/m2
01:59 45.7 °F 43.2 °F 29.9 in WNW 2 mph 4 mph 91% 0 in 0 W/m2
02:04 46 °F 43.9 °F 29.9 in WNW 2 mph 3 mph 92% 0 in 0 W/m2
02:09 46.9 °F 44.8 °F 29.9 in West 2 mph 4 mph 92% 0 in 0 W/m2
02:14 47.7 °F 45 °F 29.9 in NW 0.9 mph 3 mph 90% 0 in 0 W/m2
02:19 47.8 °F 44.4 °F 29.9 in NW 0.9 mph 4 mph 88% 0 in 0 W/m2
02:24 47.7 °F 44.1 °F 29.9 in WSW 2 mph 3 mph 87% 0 in 0 W/m2
02:29 47.1 °F 43.7 °F 29.9 in WSW 2 mph 2 mph 88% 0 in 0 W/m2
02:34 46.9 °F 43.5 °F 29.9 in WSW 0.9 mph 2 mph 88% 0 in 0 W/m2
02:39 46.9 °F 43.5 °F 29.9 in Calm     88% 0 in 0 W/m2
02:44 46.9 °F 43.9 °F 29.9 in WSW 2 mph 2 mph 89% 0 in 0 W/m2
02:49 46.8 °F 43.7 °F 29.9 in WNW 0.9 mph 2 mph 89% 0 in 0 W/m2
02:54 47.1 °F 44.1 °F 29.9 in WNW 0.9 mph 4 mph 89% 0 in 0 W/m2
02:59 47.5 °F 44.1 °F 29.9 in WNW 0.9 mph 3 mph 88% 0 in 0 W/m2
03:04 47.7 °F 44.2 °F 29.9 in WNW 2 mph 3 mph 88% 0 in 0 W/m2
03:09 48 °F 44.6 °F 29.9 in WNW 2 mph 3 mph 88% 0 in 0 W/m2
03:14 48.4 °F 44.8 °F 29.9 in West 6 mph 6 mph 87% 0 in 0 W/m2
03:19 48.7 °F 45 °F 29.9 in WNW 2 mph 5 mph 87% 0 in 0 W/m2
03:25 49.1 °F 45.1 °F 29.9 in West 6 mph 6 mph 86% 0 in 0 W/m2
03:30 49.3 °F 45.3 °F 29.9 in SSW 4 mph 6 mph 86% 0 in 0 W/m2
03:35 49.3 °F 45 °F 29.9 in WNW 2 mph 6 mph 85% 0 in 0 W/m2
03:40 49.3 °F 45 °F 29.9 in West 2 mph 3 mph 85% 0 in 0 W/m2
03:45 49.3 °F 45.3 °F 29.8 in West 2 mph 6 mph 86% 0 in 0 W/m2
03:50 48.9 °F 45 °F 29.8 in WSW 0.9 mph 3 mph 86% 0 in 0 W/m2
03:55 48.9 °F 45 °F 29.8 in NW 0.9 mph 1 mph 86% 0 in 0 W/m2
04:00 48.7 °F 44.8 °F 29.8 in NW 0.9 mph 3 mph 86% 0 in 0 W/m2
04:05 48.4 °F 44.4 °F 29.8 in Calm   1 mph 86% 0 in 0 W/m2
04:10 48 °F 44.1 °F 29.8 in WNW 2 mph 4 mph 86% 0 in 0 W/m2
04:15 47.8 °F 44.2 °F 29.8 in Calm   2 mph 87% 0 in 0 W/m2
04:20 47.7 °F 44.1 °F 29.8 in SW 2 mph 4 mph 87% 0 in 0 W/m2
04:25 47.8 °F 44.4 °F 29.8 in WNW 2.9 mph 7 mph 88% 0 in 0 W/m2
04:30 47.8 °F 44.4 °F 29.8 in NW 2 mph 7 mph 88% 0 in 0 W/m2
04:35 48 °F 44.6 °F 29.8 in Calm   2 mph 88% 0 in 0 W/m2
04:40 48 °F 44.6 °F 29.8 in WNW 0.9 mph 7 mph 88% 0 in 0 W/m2
04:45 47.8 °F 44.2 °F 29.8 in Calm   1 mph 87% 0 in 0 W/m2
04:50 47.5 °F 43.9 °F 29.8 in Calm   2 mph 87% 0 in 0 W/m2
04:55 47.1 °F 43.7 °F 29.8 in West 2 mph 4 mph 88% 0 in 0 W/m2
05:00 47.1 °F 44.1 °F 29.8 in WNW 2 mph 5 mph 89% 0 in 0 W/m2
05:05 47.3 °F 44.2 °F 29.8 in WNW 7 mph 7 mph 89% 0 in 0 W/m2
05:10 47.3 °F 44.2 °F 29.8 in WNW 2.9 mph 7 mph 89% 0 in 0 W/m2
05:15 47.5 °F 44.4 °F 29.8 in WSW 2.9 mph 6 mph 89% 0 in 0 W/m2
05:20 47.3 °F 44.2 °F 29.8 in NW 2.9 mph 3 mph 89% 0 in 0 W/m2
05:25 47.1 °F 44.1 °F 29.8 in West 2 mph 7 mph 89% 0 in 0 W/m2
05:30 47.1 °F 44.1 °F 29.8 in NW 4 mph 7 mph 89% 0 in 0 W/m2
05:35 47.1 °F 44.4 °F 29.8 in West 2.9 mph 7 mph 90% 0 in 0 W/m2
05:40 46.9 °F 44.2 °F 29.8 in NW 4 mph 9 mph 90% 0 in 0 W/m2
05:45 46.9 °F 44.2 °F 29.8 in WSW 4.9 mph 5 mph 90% 0 in 0 W/m2
05:50 46.9 °F 44.2 °F 29.8 in West 2.9 mph 6 mph 90% 0 in 0 W/m2
05:55 46.9 °F 44.2 °F 29.8 in SW 2 mph 7 mph 90% 0 in 0 W/m2
06:00 46.9 °F 44.2 °F 29.8 in West 0.9 mph 6 mph 90% 0 in 0 W/m2
06:05 46.8 °F 44.1 °F 29.8 in SW 2 mph 6 mph 90% 0 in 0 W/m2
06:10 46.9 °F 44.2 °F 29.8 in West 4 mph 6 mph 90% 0 in 0 W/m2
06:15 46.9 °F 44.2 °F 29.8 in WNW 0.9 mph 6 mph 90% 0 in 0 W/m2
06:20 46.9 °F 44.4 °F 29.8 in West 2 mph 3 mph 91% 0 in 0 W/m2
06:25 46.9 °F 44.2 °F 29.8 in West 2 mph 3 mph 90% 0 in 0 W/m2
06:30 46.8 °F 44.2 °F 29.8 in WSW 2 mph 6 mph 91% 0 in 0 W/m2
06:35 46.8 °F 44.2 °F 29.8 in West 2.9 mph 6 mph 91% 0 in 0 W/m2
06:40 46.8 °F 44.2 °F 29.8 in West 4 mph 4 mph 91% 0 in 0 W/m2
06:45 46.8 °F 44.2 °F 29.8 in WSW 0.9 mph 6 mph 91% 0 in 0 W/m2
06:50 46.8 °F 44.2 °F 29.8 in West 4 mph 4 mph 91% 0 in 0 W/m2
06:55 46.8 °F 44.2 °F 29.8 in WSW 0.9 mph 5 mph 91% 0 in 0 W/m2
07:00 46.8 °F 44.2 °F 29.8 in West 2.9 mph 6 mph 91% 0 in 0 W/m2
07:05 46.8 °F 44.2 °F 29.8 in WSW 0.9 mph 2 mph 91% 0 in 0 W/m2
07:10 46.6 °F 44.1 °F 29.8 in SW 2 mph 6 mph 91% 0 in 0 W/m2
07:15 46.8 °F 44.6 °F 29.8 in ESE 2 mph 3 mph 92% 0 in 0 W/m2
07:20 46.8 °F 44.6 °F 29.8 in Calm   5 mph 92% 0 in 5 W/m2
07:25 46.8 °F 44.6 °F 29.8 in Calm   1 mph 92% 0 in 7 W/m2
07:30 46.8 °F 44.6 °F 29.8 in Calm   1 mph 92% 0 in 9 W/m2
07:35 46.8 °F 44.6 °F 29.8 in Calm   2 mph 92% 0 in 11 W/m2
07:40 46.8 °F 44.6 °F 29.8 in WSW 2 mph 2 mph 92% 0 in 16 W/m2
07:45 46.8 °F 44.6 °F 29.8 in Calm   2 mph 92% 0 in 21 W/m2
07:50 46.8 °F 44.6 °F 29.8 in South 0.9 mph 2 mph 92% 0 in 26 W/m2
07:55 46.8 °F 44.6 °F 29.8 in Calm   2 mph 92% 0 in 28 W/m2
08:00 46.8 °F 44.6 °F 29.8 in Calm   1 mph 92% 0 in 35 W/m2
08:05 46.8 °F 44.6 °F 29.8 in West 0.9 mph 2 mph 92% 0 in 37 W/m2
08:10 46.8 °F 44.6 °F 29.8 in Calm   2 mph 92% 0 in 40 W/m2
08:15 46.9 °F 44.8 °F 29.8 in Calm   1 mph 92% 0 in 44 W/m2
08:20 46.9 °F 44.8 °F 29.8 in WNW 2 mph 3 mph 92% 0 in 44 W/m2
08:25 46.9 °F 44.8 °F 29.8 in WSW 2 mph 3 mph 92% 0 in 46 W/m2
08:30 47.1 °F 45 °F 29.8 in Calm   2 mph 92% 0 in 53 W/m2
08:35 47.1 °F 44.6 °F 29.8 in WNW 0.9 mph 1 mph 91% 0 in 60 W/m2
08:40 47.3 °F 44.8 °F 29.8 in SW 0.9 mph 3 mph 91% 0 in 69 W/m2
08:45 47.5 °F 45 °F 29.8 in WSW 2 mph 4 mph 91% 0 in 74 W/m2
08:50 47.5 °F 45 °F 29.8 in Calm   2 mph 91% 0 in 72 W/m2
08:55 47.7 °F 45.1 °F 29.8 in West 2.9 mph 6 mph 91% 0 in 81 W/m2
09:00 47.8 °F 45.3 °F 29.8 in Calm   8 mph 91% 0 in 84 W/m2
09:05 48 °F 45.1 °F 29.8 in Calm   7 mph 90% 0 in 88 W/m2
09:10 48.4 °F 45.5 °F 29.7 in WNW 0.9 mph 4 mph 90% 0 in 95 W/m2
09:15 48.6 °F 45.7 °F 29.7 in WSW 0.9 mph 5 mph 90% 0 in 105 W/m2
09:20 48.9 °F 46 °F 29.7 in NNW 2 mph 8 mph 90% 0 in 111 W/m2
09:26 49.5 °F 46.4 °F 29.7 in SW 0.9 mph 2 mph 89% 0 in 236 W/m2
09:31 49.8 °F 46.4 °F 29.7 in NW 4 mph 5 mph 88% 0 in 202 W/m2
09:36 50.5 °F 47.1 °F 29.7 in WNW 0.9 mph 6 mph 88% 0 in 174 W/m2
09:41 51.3 °F 47.5 °F 29.7 in West 6.9 mph 7 mph 87% 0 in 162 W/m2
09:46 51.8 °F 47.5 °F 29.7 in Calm   6 mph 85% 0 in 144 W/m2
09:51 52 °F 47.3 °F 29.7 in ENE 2.9 mph 9 mph 84% 0 in 169 W/m2
09:56 52 °F 47.3 °F 29.7 in WNW 2 mph 3 mph 84% 0 in 174 W/m2
10:01 52 °F 47.3 °F 29.7 in NNE 4 mph 9 mph 84% 0 in 178 W/m2
10:06 52 °F 46.9 °F 29.7 in ESE 0.9 mph 4 mph 83% 0 in 178 W/m2
10:11 52 °F 47.3 °F 29.7 in WSW 4.9 mph 9 mph 84% 0 in 188 W/m2
10:16 51.8 °F 47.1 °F 29.7 in WSW 4 mph 7 mph 84% 0 in 153 W/m2
10:21 51.6 °F 46.9 °F 29.7 in NW 2.9 mph 5 mph 84% 0 in 139 W/m2
10:26 51.6 °F 46.9 °F 29.7 in West 2.9 mph 5 mph 84% 0 in 146 W/m2
10:31 51.8 °F 47.1 °F 29.7 in NNW 2 mph 4 mph 84% 0 in 141 W/m2
10:36 52 °F 47.3 °F 29.7 in WNW 2.9 mph 4 mph 84% 0 in 123 W/m2
10:41 51.8 °F 47.5 °F 29.7 in NNE 2 mph 7 mph 85% 0 in 125 W/m2
10:46 51.8 °F 47.5 °F 29.7 in WSW 0.9 mph 6 mph 85% 0 in 125 W/m2
10:51 52 °F 47.7 °F 29.7 in NW 2.9 mph 9 mph 85% 0 in 123 W/m2
10:56 52 °F 47.7 °F 29.7 in Calm   2 mph 85% 0 in 146 W/m2
11:01 52 °F 47.8 °F 29.7 in WNW 2.9 mph 4 mph 86% 0 in 158 W/m2
11:06 52.2 °F 48 °F 29.7 in WSW 2.9 mph 4 mph 86% 0 in 197 W/m2
11:11 52.3 °F 48 °F 29.7 in WNW 2.9 mph 7 mph 85% 0 in 206 W/m2
11:16 52.3 °F 48.2 °F 29.7 in SW 2.9 mph 6 mph 86% 0 in 174 W/m2
11:21 52.5 °F 48.2 °F 29.7 in NNW 0.9 mph 4 mph 85% 0 in 176 W/m2
11:26 52.9 °F 48.6 °F 29.7 in WNW 4 mph 6 mph 85% 0 in 174 W/m2
11:31 53.1 °F 48 °F 29.7 in NW 0.9 mph 8 mph 83% 0 in 148 W/m2
11:36 53.2 °F 47.5 °F 29.7 in WSW 4.9 mph 13 mph 81% 0 in 139 W/m2
11:41 53.2 °F 47.5 °F 29.7 in NE 0.9 mph 2 mph 81% 0 in 158 W/m2
11:46 53.4 °F 47.7 °F 29.7 in NNE 0.9 mph 6 mph 81% 0 in 151 W/m2
11:51 53.6 °F 47.8 °F 29.7 in WNW 2 mph 6 mph 81% 0 in 151 W/m2
11:56 53.8 °F 47.8 °F 29.7 in NNW 4 mph 8 mph 80% 0 in 146 W/m2
12:01 53.8 °F 47.8 °F 29.7 in West 2 mph 4 mph 80% 0 in 146 W/m2
12:06 54 °F 47.7 °F 29.7 in WNW 0.9 mph 3 mph 79% 0 in 125 W/m2
12:11 54.1 °F 47.5 °F 29.7 in NNW 2 mph 6 mph 78% 0 in 135 W/m2
12:16 54.1 °F 47.1 °F 29.7 in WNW 2 mph 4 mph 77% 0 in 169 W/m2
12:21 54.3 °F 47.3 °F 29.7 in WNW 0.9 mph 5 mph 77% 0 in 216 W/m2
12:26 54.7 °F 47.3 °F 29.7 in WNW 4.9 mph 12 mph 76% 0 in 248 W/m2
12:31 54.7 °F 47.3 °F 29.7 in NNW 0.9 mph 3 mph 76% 0 in 271 W/m2
12:36 54.9 °F 47.1 °F 29.7 in WNW 2.9 mph 15 mph 75% 0 in 308 W/m2
12:41 55.2 °F 47.5 °F 29.7 in South 4.9 mph 8 mph 75% 0 in 311 W/m2
12:46 55.4 °F 47.3 °F 29.7 in SSE 2 mph 14 mph 74% 0 in 264 W/m2
12:51 55.8 °F 47.7 °F 29.7 in WNW 8.1 mph 8 mph 74% 0 in 225 W/m2
12:56 55.8 °F 47.3 °F 29.7 in WNW 2 mph 6 mph 73% 0 in 227 W/m2
13:01 55.9 °F 47.5 °F 29.7 in West 6 mph 7 mph 73% 0 in 227 W/m2
13:06 56.1 °F 47.3 °F 29.7 in WNW 8.1 mph 8 mph 72% 0 in 255 W/m2
13:11 56.3 °F 46.9 °F 29.7 in NNW 2.9 mph 6 mph 71% 0 in 234 W/m2
13:16 56.5 °F 46.8 °F 29.7 in NNW 4 mph 9 mph 70% 0 in 207 W/m2
13:21 56.5 °F 46.8 °F 29.7 in North 0.9 mph 6 mph 70% 0 in 207 W/m2
13:26 56.5 °F 47.1 °F 29.7 in NW 0.9 mph 2 mph 71% 0 in 227 W/m2
13:31 56.7 °F 46.6 °F 29.7 in WNW 2 mph 3 mph 69% 0 in 241 W/m2
13:36 56.7 °F 46.2 °F 29.7 in WNW 2 mph 8 mph 68% 0 in 244 W/m2
13:41 56.7 °F 45.5 °F 29.7 in NW 2.9 mph 9 mph 66% 0 in 257 W/m2
13:46 56.7 °F 45.5 °F 29.7 in SW 4 mph 9 mph 66% 0 in 353 W/m2
13:51 56.8 °F 46 °F 29.7 in NNW 2.9 mph 6 mph 67% 0 in 304 W/m2
13:56 57.2 °F 45.9 °F 29.7 in NW 2 mph 5 mph 66% 0 in 316 W/m2
14:01 57.6 °F 46.8 °F 29.7 in WNW 2.9 mph 9 mph 67% 0 in 330 W/m2
14:06 57.7 °F 46 °F 29.7 in NNW 4.9 mph 8 mph 65% 0 in 336 W/m2
14:11 57.9 °F 46.2 °F 29.6 in SSW 2.9 mph 9 mph 65% 0 in 661 W/m2
14:16 58.6 °F 46 °F 29.6 in NW 2.9 mph 10 mph 63% 0 in 584 W/m2
14:21 59.4 °F 46.8 °F 29.6 in NNW 8.1 mph 9 mph 63% 0 in 468 W/m2
14:26 59.5 °F 46.6 °F 29.6 in WNW 6.9 mph 11 mph 62% 0 in 397 W/m2
14:31 59.2 °F 46.2 °F 29.6 in WNW 6.9 mph 10 mph 62% 0 in 299 W/m2
14:36 58.6 °F 46 °F 29.6 in SW 4 mph 6 mph 63% 0 in 274 W/m2
14:41 58.5 °F 45.9 °F 29.6 in NNW 8.1 mph 9 mph 63% 0 in 265 W/m2
14:46 58.5 °F 45.9 °F 29.6 in North 4 mph 5 mph 63% 0 in 281 W/m2
14:51 58.3 °F 45.7 °F 29.6 in SSE 4 mph 7 mph 63% 0 in 404 W/m2
14:56 58.5 °F 46.4 °F 29.6 in West 8.1 mph 13 mph 64% 0 in 381 W/m2
15:01 59 °F 46.4 °F 29.6 in South 8.1 mph 8 mph 63% 0 in 749 W/m2
15:06 59.4 °F 46.4 °F 29.6 in SSE 2 mph 8 mph 62% 0 in 260 W/m2
15:11 59.2 °F 46.6 °F 29.6 in North 4 mph 9 mph 63% 0 in 422 W/m2
15:16 59 °F 46.4 °F 29.6 in WNW 8.1 mph 12 mph 63% 0 in 251 W/m2
15:21 58.6 °F 46 °F 29.6 in West 6.9 mph 10 mph 63% 0 in 250 W/m2
15:26 58.6 °F 46 °F 29.6 in NNE 4 mph 8 mph 63% 0 in 223 W/m2
15:31 58.8 °F 46.2 °F 29.6 in NNW 2 mph 9 mph 63% 0 in 193 W/m2
15:36 58.6 °F 46 °F 29.6 in SSW 4 mph 12 mph 63% 0 in 176 W/m2
15:41 58.6 °F 45.7 °F 29.6 in NW 2.9 mph 11 mph 62% 0 in 146 W/m2
15:46 58.5 °F 45.9 °F 29.6 in NW 4 mph 7 mph 63% 0 in 139 W/m2
15:51 58.6 °F 45.7 °F 29.6 in North 0.9 mph 8 mph 62% 0 in 105 W/m2
15:56 58.5 °F 45.5 °F 29.6 in WNW 2 mph 8 mph 62% 0 in 95 W/m2
16:01 58.5 °F 45.5 °F 29.6 in NNW 0.9 mph 4 mph 62% 0 in 91 W/m2
16:06 58.5 °F 45.5 °F 29.6 in North 4.9 mph 11 mph 62% 0 in 74 W/m2
16:11 58.3 °F 45.3 °F 29.6 in North 2 mph 8 mph 62% 0 in 65 W/m2
16:16 58.3 °F 45.7 °F 29.6 in North 2.9 mph 11 mph 63% 0 in 40 W/m2
16:21 58.1 °F 45.5 °F 29.6 in West 2 mph 7 mph 63% 0 in 32 W/m2
16:26 57.7 °F 46.4 °F 29.6 in West 2 mph 7 mph 66% 0 in 25 W/m2
16:31 56.8 °F 46.8 °F 29.6 in WNW 8.1 mph 9 mph 69% 0.01 in 40 W/m2
16:36 55.9 °F 47.5 °F 29.6 in NW 2 mph 7 mph 73% 0.02 in 65 W/m2
16:41 55.2 °F 46.4 °F 29.6 in South 0.9 mph 12 mph 72% 0.02 in 69 W/m2
16:46 54.9 °F 47.1 °F 29.6 in North 0.9 mph 5 mph 75% 0.02 in 62 W/m2
16:51 54.5 °F 47.5 °F 29.6 in Calm   12 mph 77% 0.02 in 54 W/m2
16:56 54.3 °F 47.7 °F 29.6 in Calm   1 mph 78% 0.03 in 54 W/m2
17:01 54.1 °F 48 °F 29.6 in ENE 0.9 mph 3 mph 80% 0.04 in 54 W/m2
17:06 54 °F 48.6 °F 29.6 in ENE 2 mph 2 mph 82% 0.05 in 74 W/m2
17:11 53.8 °F 48.4 °F 29.6 in East 2 mph 3 mph 82% 0.05 in 86 W/m2
17:16 53.6 °F 48.6 °F 29.6 in Calm   2 mph 83% 0.06 in 98 W/m2
17:21 53.4 °F 48.4 °F 29.6 in South 0.9 mph 4 mph 83% 0.06 in 86 W/m2
17:26 53.2 °F 48.6 °F 29.6 in WNW 2 mph 4 mph 84% 0.06 in 93 W/m2
17:31 53.1 °F 48.4 °F 29.6 in West 2 mph 5 mph 84% 0.06 in 111 W/m2
17:36 52.9 °F 48.6 °F 29.6 in West 0.9 mph 2 mph 85% 0.05 in 111 W/m2
17:41 52.9 °F 48.7 °F 29.6 in NW 2 mph 5 mph 86% 0.05 in 86 W/m2
17:46 52.7 °F 48.6 °F 29.6 in Calm   1 mph 86% 0.05 in 56 W/m2
17:51 52.5 °F 48.4 °F 29.6 in ENE 2 mph 4 mph 86% 0.05 in 46 W/m2
17:56 52.5 °F 48.7 °F 29.6 in South 0.9 mph 4 mph 87% 0.04 in 39 W/m2
18:01 52.5 °F 48.7 °F 29.6 in WNW 2 mph 8 mph 87% 0.03 in 21 W/m2
18:06 52.3 °F 48.6 °F 29.6 in NNW 2 mph 4 mph 87% 0.03 in 12 W/m2
18:11 52.3 °F 48.6 °F 29.6 in North 2 mph 8 mph 87% 0.04 in 14 W/m2
18:16 52.2 °F 48.7 °F 29.6 in NNW 4.9 mph 6 mph 88% 0.04 in 19 W/m2
18:21 52.2 °F 48.7 °F 29.6 in NE 2 mph 2 mph 88% 0.05 in 21 W/m2
18:26 52.2 °F 49.1 °F 29.6 in NNW 2.9 mph 8 mph 89% 0.05 in 21 W/m2
18:31 52 °F 48.9 °F 29.6 in Calm   3 mph 89% 0.05 in 14 W/m2
18:36 52 °F 48.9 °F 29.5 in NNW 2 mph 5 mph 89% 0.05 in 7 W/m2
18:41 51.6 °F 48.6 °F 29.5 in Calm   8 mph 89% 0.05 in 11 W/m2
18:47 51.6 °F 48.7 °F 29.5 in NE 2 mph 3 mph 90% 0.06 in 16 W/m2
18:52 51.6 °F 48.7 °F 29.5 in NE 0.9 mph 3 mph 90% 0.06 in 11 W/m2
18:57 51.6 °F 48.7 °F 29.5 in ENE 0.9 mph 5 mph 90% 0.06 in 0 W/m2
19:02 51.4 °F 48.6 °F 29.5 in NE 2 mph 10 mph 90% 0.07 in 0 W/m2
19:07 51.4 °F 48.9 °F 29.5 in NW 2.9 mph 7 mph 91% 0.07 in 0 W/m2
19:12 51.4 °F 48.9 °F 29.5 in Calm   10 mph 91% 0.06 in 0 W/m2
19:17 51.4 °F 48.9 °F 29.5 in NW 2 mph 5 mph 91% 0.06 in 0 W/m2
19:22 51.3 °F 48.7 °F 29.5 in North 2 mph 6 mph 91% 0.06 in 0 W/m2
19:27 51.3 °F 48.7 °F 29.5 in North 4.9 mph 6 mph 91% 0.06 in 0 W/m2
19:32 51.3 °F 48.7 °F 29.5 in ENE 2.9 mph 5 mph 91% 0.07 in 0 W/m2
19:37 51.3 °F 48.7 °F 29.5 in WNW 2.9 mph 8 mph 91% 0.07 in 0 W/m2
19:42 51.1 °F 48.6 °F 29.5 in WNW 2 mph 6 mph 91% 0.08 in 0 W/m2
19:47 51.1 °F 48.9 °F 29.5 in WNW 2 mph 8 mph 92% 0.08 in 0 W/m2
19:52 50.7 °F 48.6 °F 29.5 in NNE 2.9 mph 10 mph 92% 0.09 in 0 W/m2
19:57 50.7 °F 48.6 °F 29.5 in NW 4 mph 5 mph 92% 0.08 in 0 W/m2
20:02 50.7 °F 48.2 °F 29.5 in ENE 0.9 mph 5 mph 91% 0.07 in 0 W/m2
20:07 50.5 °F 48.4 °F 29.5 in NNW 2 mph 6 mph 92% 0.07 in 0 W/m2
20:12 50.5 °F 48.4 °F 29.5 in NE 2 mph 12 mph 92% 0.07 in 0 W/m2
20:17 50.5 °F 48.4 °F 29.5 in South 2 mph 9 mph 92% 0.07 in 0 W/m2
20:22 50.4 °F 48.2 °F 29.5 in SW 0.9 mph 12 mph 92% 0.07 in 0 W/m2
20:27 50.4 °F 48.2 °F 29.5 in WSW 4.9 mph 10 mph 92% 0.07 in 0 W/m2
20:32 50.4 °F 48.2 °F 29.5 in WNW 2.9 mph 14 mph 92% 0.06 in 0 W/m2
20:37 50.4 °F 48.2 °F 29.5 in NE 4 mph 11 mph 92% 0.06 in 0 W/m2
20:42 50.4 °F 48.2 °F 29.5 in NW 8.1 mph 14 mph 92% 0.05 in 0 W/m2
20:47 50.4 °F 48.2 °F 29.5 in NNW 4 mph 10 mph 92% 0.04 in 0 W/m2
20:52 50.4 °F 48.2 °F 29.5 in SE 0.9 mph 5 mph 92% 0.04 in 0 W/m2
20:57 50.4 °F 48.2 °F 29.5 in NNW 8.9 mph 12 mph 92% 0.04 in 0 W/m2
21:02 50.4 °F 48.2 °F 29.5 in ENE 0.9 mph 13 mph 92% 0.04 in 0 W/m2
21:07 50.4 °F 48.2 °F 29.5 in NW 10.1 mph 10 mph 92% 0.03 in 0 W/m2
21:12 50.4 °F 48.2 °F 29.5 in NNE 2 mph 13 mph 92% 0.03 in 0 W/m2
21:17 50.4 °F 48.2 °F 29.5 in West 2.9 mph 7 mph 92% 0.03 in 0 W/m2
21:22 50.4 °F 48.2 °F 29.5 in NNW 2.9 mph 11 mph 92% 0.02 in 0 W/m2
21:27 50.4 °F 48.2 °F 29.5 in NNE 4.9 mph 5 mph 92% 0.02 in 0 W/m2
21:32 50.4 °F 48.2 °F 29.5 in ENE 2 mph 6 mph 92% 0.02 in 0 W/m2
21:37 50.4 °F 48.2 °F 29.5 in WNW 2 mph 8 mph 92% 0.02 in 0 W/m2
21:42 50.4 °F 48.2 °F 29.5 in West 2.9 mph 5 mph 92% 0.02 in 0 W/m2
21:47 50.4 °F 48.2 °F 29.5 in NW 2 mph 4 mph 92% 0.02 in 0 W/m2
21:52 50.2 °F 48.2 °F 29.5 in NNW 0.9 mph 7 mph 93% 0.02 in 0 W/m2
21:57 50.4 °F 48.4 °F 29.5 in NW 4 mph 4 mph 93% 0.02 in 0 W/m2
22:02 50.4 °F 48.4 °F 29.5 in NNW 2 mph 7 mph 93% 0.02 in 0 W/m2
22:07 50.4 °F 48.4 °F 29.5 in NW 8.1 mph 9 mph 93% 0.02 in 0 W/m2
22:12 50.4 °F 48.4 °F 29.5 in NNW 4.9 mph 7 mph 93% 0.02 in 0 W/m2
22:17 50.4 °F 48.4 °F 29.5 in NW 2.9 mph 4 mph 93% 0.01 in 0 W/m2
22:22 50.4 °F 48.4 °F 29.5 in North 0.9 mph 9 mph 93% 0.01 in 0 W/m2
22:27 50.4 °F 48.4 °F 29.5 in WNW 0.9 mph 2 mph 93% 0.02 in 0 W/m2
22:32 50.4 °F 48.4 °F 29.5 in Calm   5 mph 93% 0.02 in 0 W/m2
22:37 50.4 °F 48.4 °F 29.5 in NNW 2 mph 6 mph 93% 0.02 in 0 W/m2
22:42 50.4 °F 48.4 °F 29.5 in Calm   3 mph 93% 0.02 in 0 W/m2
22:47 50.4 °F 48.4 °F 29.5 in SSE 2 mph 4 mph 93% 0.01 in 0 W/m2
22:52 50.5 °F 48.6 °F 29.5 in NNW 2.9 mph 5 mph 93% 0.01 in 0 W/m2
22:57 50.5 °F 48.6 °F 29.5 in WNW 0.9 mph 4 mph 93% 0.01 in 0 W/m2
23:02 50.5 °F 48.6 °F 29.5 in NW 2 mph 2 mph 93% 0.02 in 0 W/m2
23:07 50.5 °F 48.6 °F 29.5 in WSW 2 mph 2 mph 93% 0.02 in 0 W/m2
23:12 50.5 °F 48.6 °F 29.5 in NW 0.9 mph 3 mph 93% 0.04 in 0 W/m2
23:17 50.5 °F 48.6 °F 29.5 in West 8.1 mph 18 mph 93% 0.05 in 0 W/m2
23:22 50.5 °F 48.6 °F 29.5 in West 2.9 mph 8 mph 93% 0.05 in 0 W/m2
23:27 50.5 °F 48.6 °F 29.5 in SW 10.1 mph 13 mph 93% 0.04 in 0 W/m2
23:32 50.5 °F 48.6 °F 29.5 in WSW 4.9 mph 9 mph 93% 0.04 in 0 W/m2
23:37 50.5 °F 48.6 °F 29.5 in West 2 mph 11 mph 93% 0.04 in 0 W/m2
23:42 50.4 °F 48.2 °F 29.5 in West 2 mph 6 mph 92% 0.04 in 0 W/m2
23:47 50.4 °F 48.4 °F 29.5 in WSW 2 mph 9 mph 93% 0.04 in 0 W/m2
23:52 50.4 °F 48.2 °F 29.5 in WNW 6 mph 12 mph 92% 0.04 in 0 W/m2
23:57 50.2 °F 48 °F 29.5 in West 2 mph 7 mph 92% 0.04 in 0 W/m2
Juneau County Weather
Compliments of Weather Underground - 4 mb